Francis, Canada
Current Conditions -  °F | °C
As of 4:10 AM on Wednesday 26 Nov 2014 (Local Time) from CYQR Reporting Station
Few Clouds Few Clouds  
Wind Chill: -6°   Ceiling: Unl
Heat Index: -6°   Visibility: 15mi
Dew Point: -9°   Wind: 2mph
Humidity: 84%   Direction: 20°NNE
Pressure: 30.31"   Gusts: NA
Location:  50.1°N, 103.87°W
Report Text: CYQR 261010Z 02002KT 15SM FEW060 M21/M23 A3031 RMK SC2 SLP318
Loading
Personal Weather Stations






























Interactive Weather Map New forecast layout! Learn more

10-Day Weather Forecast

Advertisements
Track Severe Weather on mobile